Time;durP1;ratioP1;P1;durP2;ratioP2;P2;SDS_P1;SDS_P2;PMS_P1;PMS_P2;Temp;Humidity;BMP_temperature;BMP_pressure;BME280_temperature;BME280_humidity;BME280_pressure;Samples;Min_cycle;Max_cycle;Signal;HPM_P1;HPM_P2
2022/05/06 00:00:06;;;;;;;11.05;6.12;;;;;;;20.57;49.42;98415.44;4439630;32;20165;-75
2022/05/06 00:02:33;;;;;;;14.00;6.10;;;;;;;20.61;48.96;98417.69;4439904;32;20495;-75
2022/05/06 00:05:00;;;;;;;11.23;6.05;;;;;;;20.29;49.93;98414.91;4439745;32;20073;-75
2022/05/06 00:07:27;;;;;;;11.88;6.32;;;;;;;20.12;50.30;98416.19;4439612;32;20168;-74
2022/05/06 00:09:55;;;;;;;12.50;5.87;;;;;;;20.74;48.47;98415.78;4441936;32;20093;-75
2022/05/06 00:12:23;;;;;;;11.07;5.65;;;;;;;19.76;51.35;98422.38;4427792;32;20097;-75
2022/05/06 00:14:50;;;;;;;12.68;5.80;;;;;;;19.96;50.92;98413.06;4441650;32;20403;-75
2022/05/06 00:17:24;;;;;;;11.95;6.18;;;;;;;20.36;49.64;98410.88;4441837;32;20490;-75
2022/05/06 00:19:51;;;;;;;10.40;5.95;;;;;;;19.85;51.11;98407.78;4441485;32;20097;-75
2022/05/06 00:22:18;;;;;;;10.23;5.80;;;;;;;20.25;49.95;98415.25;4441792;32;20085;-75
2022/05/06 00:24:45;;;;;;;11.55;5.93;;;;;;;20.28;50.16;98410.59;4441620;32;20333;-75
2022/05/06 00:27:13;;;;;;;10.80;6.20;;;;;;;19.70;51.79;98409.78;4427513;32;20111;-75
2022/05/06 00:29:40;;;;;;;13.68;6.30;;;;;;;20.11;50.95;98419.78;4441472;32;20207;-75
2022/05/06 00:32:07;;;;;;;11.90;6.37;;;;;;;20.47;49.77;98417.94;4441552;32;20095;-75
2022/05/06 00:34:34;;;;;;;12.20;6.45;;;;;;;20.50;49.39;98428.16;4441217;32;20531;-75
2022/05/06 00:37:01;;;;;;;12.30;6.90;;;;;;;20.16;50.53;98417.63;4441463;32;20105;-75
2022/05/06 00:39:28;;;;;;;13.13;6.43;;;;;;;19.83;51.53;98401.84;4441668;32;20128;-75
2022/05/06 00:41:55;;;;;;;12.07;7.53;;;;;;;19.97;51.33;98391.16;4441215;32;20103;-75
2022/05/06 00:44:22;;;;;;;13.25;7.15;;;;;;;19.80;52.19;98388.97;4441489;32;20397;-75
2022/05/06 00:46:52;;;;;;;11.23;6.47;;;;;;;19.87;51.91;98385.75;4441508;32;20101;-75
2022/05/06 00:49:19;;;;;;;13.35;6.82;;;;;;;20.48;50.09;98388.97;4441325;32;20155;-75
2022/05/06 00:51:47;;;;;;;12.15;6.28;;;;;;;20.86;48.41;98392.19;4427765;32;20610;-75
2022/05/06 00:54:15;;;;;;;11.77;6.12;;;;;;;20.43;49.59;98388.50;4441506;32;20082;-75
2022/05/06 00:56:42;;;;;;;13.80;6.28;;;;;;;20.09;50.31;98392.84;4440986;32;20102;-75
2022/05/06 00:59:09;;;;;;;11.50;6.45;;;;;;;19.81;51.39;98396.72;4427615;32;20089;-75
2022/05/06 01:01:36;;;;;;;15.50;7.55;;;;;;;19.42;52.93;98400.47;4441185;32;20099;-75
2022/05/06 01:04:06;;;;;;;13.00;7.15;;;;;;;19.51;52.92;98394.56;4441497;32;20419;-75
2022/05/06 01:06:35;;;;;;;12.20;6.85;;;;;;;19.69;52.68;98395.03;4441168;32;20093;-75
2022/05/06 01:09:03;;;;;;;11.07;6.15;;;;;;;19.60;52.51;98388.69;4441183;32;20116;-75
2022/05/06 01:11:31;;;;;;;13.15;7.10;;;;;;;19.70;52.22;98388.00;4427605;32;20101;-75
2022/05/06 01:13:58;;;;;;;11.98;6.62;;;;;;;19.80;51.92;98395.06;4441332;32;20143;-75
2022/05/06 01:16:32;;;;;;;15.95;6.53;;;;;;;20.11;51.20;98392.75;4440954;32;20140;-75
2022/05/06 01:18:59;;;;;;;13.13;7.47;;;;;;;20.20;50.90;98392.87;4440974;32;20112;-75
2022/05/06 01:21:27;;;;;;;12.55;7.22;;;;;;;20.73;49.67;98384.44;4441048;32;20432;-75
2022/05/06 01:23:54;;;;;;;12.52;6.82;;;;;;;21.23;48.30;98392.69;4441016;32;20460;-76
2022/05/06 01:26:21;;;;;;;11.85;6.43;;;;;;;20.43;50.57;98385.87;4441017;32;20124;-75
2022/05/06 01:28:48;;;;;;;11.50;6.35;;;;;;;20.14;51.43;98382.84;4441107;32;20204;-75
2022/05/06 01:31:19;;;;;;;13.35;6.85;;;;;;;20.54;49.98;98386.84;4427102;32;20363;-75
2022/05/06 01:33:54;;;;;;;12.40;5.97;;;;;;;20.33;50.66;98389.31;4427501;32;20077;-75
2022/05/06 01:36:24;;;;;;;12.50;6.72;;;;;;;20.70;49.32;98382.06;4428138;32;20181;-75
2022/05/06 01:38:53;;;;;;;12.23;6.90;;;;;;;19.99;51.26;98384.03;4440927;32;20104;-75
2022/05/06 01:41:26;;;;;;;12.57;6.95;;;;;;;20.01;51.38;98389.16;4427414;32;20692;-75
2022/05/06 01:43:57;;;;;;;12.63;7.07;;;;;;;19.69;52.48;98386.34;4441071;32;20093;-75
2022/05/06 01:46:26;;;;;;;14.27;7.40;;;;;;;19.51;53.02;98381.47;4440996;32;20157;-75
2022/05/06 01:48:55;;;;;;;11.48;6.93;;;;;;;19.71;52.86;98381.81;4427279;32;20120;-75
2022/05/06 01:51:22;;;;;;;12.63;7.30;;;;;;;19.94;52.45;98381.75;4440857;32;20100;-75
2022/05/06 01:53:51;;;;;;;13.68;6.90;;;;;;;20.25;51.23;98382.03;4441097;32;20077;-75
2022/05/06 01:56:20;;;;;;;12.30;6.70;;;;;;;20.22;51.17;98380.50;4440923;32;20725;-75
2022/05/06 01:58:50;;;;;;;12.15;7.10;;;;;;;20.82;49.32;98375.00;4426956;32;20097;-75
2022/05/06 02:01:17;;;;;;;11.88;6.32;;;;;;;20.06;51.34;98372.13;4441233;32;20137;-75
2022/05/06 02:06:30;;;;;;;10.82;6.10;;;;;;;20.20;50.48;98373.66;4440584;32;20153;-75
2022/05/06 02:08:57;;;;;;;13.35;6.47;;;;;;;19.75;51.90;98370.97;4441068;32;20089;-75
2022/05/06 02:11:23;;;;;;;12.75;6.57;;;;;;;19.54;52.49;98369.94;4440951;32;20081;-75
2022/05/06 02:13:50;;;;;;;12.20;6.90;;;;;;;19.46;52.82;98375.75;4426835;32;20152;-75
2022/05/06 02:16:17;;;;;;;11.95;6.68;;;;;;;19.60;52.49;98375.59;4440738;32;20195;-75
2022/05/06 02:18:44;;;;;;;12.15;6.85;;;;;;;20.25;50.63;98375.97;4440746;32;20106;-75
2022/05/06 02:21:11;;;;;;;12.25;6.47;;;;;;;20.06;51.34;98368.66;4440980;32;20113;-75
2022/05/06 02:23:38;;;;;;;12.05;6.40;;;;;;;20.37;50.21;98378.47;4441046;32;20090;-75
2022/05/06 02:26:05;;;;;;;16.77;7.05;;;;;;;19.29;53.51;98376.97;4440281;32;20486;-75
2022/05/06 02:28:32;;;;;;;11.43;6.80;;;;;;;19.25;53.90;98372.94;4440782;32;20161;-75
2022/05/06 02:33:51;;;;;;;13.60;7.18;;;;;;;20.00;51.94;98372.59;4440591;32;20146;-75
2022/05/06 02:36:18;;;;;;;12.93;6.93;;;;;;;19.55;53.02;98375.06;4440497;32;20106;-75
2022/05/06 02:38:45;;;;;;;14.98;7.30;;;;;;;20.23;51.29;98368.22;4440981;32;20452;-75
2022/05/06 02:41:14;;;;;;;14.25;6.87;;;;;;;19.96;51.57;98365.06;4440446;32;20099;-75
2022/05/06 02:43:41;;;;;;;13.27;7.55;;;;;;;20.89;48.97;98361.28;4440788;32;20443;-75
2022/05/06 02:46:07;;;;;;;14.68;7.80;;;;;;;20.47;50.06;98363.72;4426668;32;20174;-75
2022/05/06 02:48:35;;;;;;;14.73;7.93;;;;;;;19.21;53.91;98362.78;4440485;32;20412;-75
2022/05/06 02:51:02;;;;;;;12.48;7.10;;;;;;;17.58;60.89;98357.50;4440817;32;20180;-75
2022/05/06 02:53:29;;;;;;;13.32;7.00;;;;;;;19.02;55.24;98356.25;4440772;32;20103;-75
2022/05/06 02:55:55;;;;;;;17.80;7.03;;;;;;;19.08;54.77;98358.44;4426381;32;20468;-75
2022/05/06 02:58:22;;;;;;;12.05;6.25;;;;;;;19.69;52.82;98366.22;4440667;32;20501;-75
2022/05/06 03:00:49;;;;;;;12.45;7.10;;;;;;;19.64;52.64;98366.53;4440242;32;20495;-75
2022/05/06 03:03:16;;;;;;;13.60;7.45;;;;;;;19.61;52.79;98366.78;4440648;32;20093;-75
2022/05/06 03:05:44;;;;;;;14.87;7.40;;;;;;;19.50;53.50;98365.88;4440405;32;20151;-75
2022/05/06 03:08:11;;;;;;;14.95;8.05;;;;;;;19.85;52.73;98366.72;4440250;32;20164;-75
2022/05/06 03:10:38;;;;;;;14.43;8.18;;;;;;;19.86;52.77;98367.56;4440594;32;20413;-75
2022/05/06 03:13:05;;;;;;;14.45;8.45;;;;;;;20.03;52.43;98368.91;4440568;32;20081;-75
2022/05/06 03:15:32;;;;;;;13.60;7.97;;;;;;;20.61;50.75;98369.66;4440062;32;20117;-75
2022/05/06 03:18:00;;;;;;;12.85;7.47;;;;;;;20.74;50.50;98367.75;4440416;32;20942;-75
2022/05/06 03:20:28;;;;;;;12.80;7.18;;;;;;;21.16;49.10;98365.25;4440500;32;20077;-75
2022/05/06 03:22:55;;;;;;;12.63;7.15;;;;;;;20.58;50.89;98369.91;4440141;32;20153;-75
2022/05/06 03:25:22;;;;;;;11.77;6.82;;;;;;;20.55;51.09;98373.62;4440200;32;20097;-75
2022/05/06 03:28:07;;;;;;;14.52;7.18;;;;;;;20.37;51.60;98380.25;4440056;32;20466;-75
2022/05/06 03:30:39;;;;;;;12.40;7.28;;;;;;;20.05;52.57;98385.34;4440154;32;20175;-75
2022/05/06 03:33:08;;;;;;;14.18;7.70;;;;;;;19.41;54.79;98379.66;4427057;32;20136;-75
2022/05/06 03:35:36;;;;;;;12.45;6.95;;;;;;;19.46;54.70;98378.37;4440268;32;20116;-75
2022/05/06 03:38:05;;;;;;;12.90;7.35;;;;;;;19.62;54.04;98380.72;4439954;32;20115;-75
2022/05/06 03:40:32;;;;;;;13.10;7.10;;;;;;;20.42;51.30;98385.97;4440299;32;20418;-75
2022/05/06 03:43:00;;;;;;;12.70;7.03;;;;;;;20.46;51.03;98377.78;4439305;32;20137;-75
2022/05/06 03:45:27;;;;;;;12.35;6.87;;;;;;;20.13;52.15;98381.19;4440195;32;20117;-75
2022/05/06 03:47:54;;;;;;;12.45;7.00;;;;;;;20.09;52.42;98382.34;4426247;32;20121;-75
2022/05/06 03:53:07;;;;;;;12.85;7.60;;;;;;;20.22;51.94;98382.28;4440219;32;20100;-75
2022/05/06 03:55:34;;;;;;;13.40;7.60;;;;;;;20.19;52.29;98383.31;4439924;32;20090;-75
2022/05/06 03:58:01;;;;;;;12.90;6.97;;;;;;;20.07;52.63;98384.25;4425806;32;20109;-75
2022/05/06 04:00:28;;;;;;;12.90;7.20;;;;;;;20.14;52.42;98392.50;4439995;32;20148;-75
2022/05/06 04:02:55;;;;;;;12.85;6.87;;;;;;;20.23;51.72;98387.38;4440095;32;20548;-75
2022/05/06 04:05:22;;;;;;;13.27;7.05;;;;;;;20.28;50.65;98388.81;4439621;32;20136;-75
2022/05/06 04:07:49;;;;;;;17.70;7.50;;;;;;;19.82;51.26;98398.38;4439702;32;20089;-75
2022/05/06 04:10:16;;;;;;;13.52;7.57;;;;;;;19.91;51.37;98404.72;4439920;32;20099;-75
2022/05/06 04:12:43;;;;;;;12.50;7.53;;;;;;;19.90;51.52;98403.88;4439542;32;20480;-75
2022/05/06 04:15:10;;;;;;;14.90;7.50;;;;;;;20.05;51.49;98414.16;4439566;32;20513;-75
2022/05/06 04:17:37;;;;;;;12.05;7.18;;;;;;;20.06;51.56;98416.66;4439717;32;20105;-75
2022/05/06 04:25:36;;;;;;;11.43;6.50;;;;;;;20.58;50.54;98420.56;4439316;32;20153;-75
2022/05/06 04:28:03;;;;;;;11.95;7.05;;;;;;;20.28;51.76;98426.31;4439287;32;20113;-75
2022/05/06 04:30:30;;;;;;;13.98;8.32;;;;;;;20.21;52.17;98419.91;4439669;32;20132;-75
2022/05/06 04:32:57;;;;;;;12.95;7.50;;;;;;;20.24;52.31;98427.53;4439220;32;20094;-75
2022/05/06 04:35:24;;;;;;;13.60;7.03;;;;;;;20.47;51.04;98429.25;4439362;32;20102;-75
2022/05/06 04:37:51;;;;;;;16.58;8.90;;;;;;;19.84;53.37;98435.75;4439204;32;20105;-75
2022/05/06 04:40:19;;;;;;;14.80;9.10;;;;;;;16.77;65.06;98421.84;4440934;32;20068;-80
2022/05/06 04:42:46;;;;;;;18.33;8.55;;;;;;;17.66;63.02;98422.25;4443870;32;20104;-80
2022/05/06 04:45:13;;;;;;;15.95;8.52;;;;;;;19.13;57.74;98430.50;4429581;32;20114;-80
2022/05/06 04:47:40;;;;;;;13.38;7.12;;;;;;;20.04;54.44;98439.50;4442676;32;20108;-80
2022/05/06 04:50:07;;;;;;;12.68;7.10;;;;;;;21.05;50.34;98436.97;4442883;32;20501;-80
2022/05/06 04:52:34;;;;;;;11.18;6.60;;;;;;;20.96;50.47;98433.31;4442940;32;20655;-80
2022/05/06 04:55:01;;;;;;;11.70;6.70;;;;;;;20.02;53.45;98444.03;4443177;32;20108;-80
2022/05/06 04:57:28;;;;;;;12.82;6.62;;;;;;;19.62;54.77;98435.69;4431291;32;20121;-80
2022/05/06 04:59:55;;;;;;;13.35;6.00;;;;;;;20.26;52.56;98438.72;4430996;32;20106;-80
2022/05/06 05:02:25;;;;;;;11.45;6.15;;;;;;;20.27;52.30;98436.94;4444981;32;20090;-80
2022/05/06 05:04:56;;;;;;;11.12;6.12;;;;;;;20.64;50.88;98433.19;4444620;32;20093;-80
2022/05/06 05:07:24;;;;;;;13.93;7.62;;;;;;;20.99;49.46;98446.16;4444345;32;20114;-80
2022/05/06 05:09:51;;;;;;;12.00;7.68;;;;;;;21.19;49.35;98441.13;4444424;32;20061;-80
2022/05/06 05:12:18;;;;;;;12.10;6.78;;;;;;;20.78;50.60;98448.69;4444635;32;20429;-80
2022/05/06 05:14:45;;;;;;;13.30;7.85;;;;;;;20.23;52.36;98452.91;4444339;32;20486;-80
2022/05/06 05:17:12;;;;;;;14.73;8.50;;;;;;;19.85;54.58;98440.03;4444240;32;20158;-80
2022/05/06 05:19:40;;;;;;;16.52;8.88;;;;;;;19.94;54.91;98436.75;4444550;32;20464;-80
2022/05/06 05:22:07;;;;;;;16.02;8.57;;;;;;;20.25;54.20;98438.84;4444662;32;20388;-80
2022/05/06 05:24:34;;;;;;;15.18;9.00;;;;;;;20.34;53.95;98446.84;4430757;32;20101;-80
2022/05/06 05:27:01;;;;;;;14.93;8.68;;;;;;;20.09;54.89;98442.59;4430573;32;20115;-80
2022/05/06 05:29:28;;;;;;;17.17;9.18;;;;;;;20.57;53.70;98444.28;4444079;32;20462;-80
2022/05/06 05:31:55;;;;;;;15.23;8.38;;;;;;;21.42;50.92;98450.62;4444583;32;20169;-80
2022/05/06 05:34:23;;;;;;;16.40;8.63;;;;;;;21.45;50.92;98446.94;4444748;32;20244;-80
2022/05/06 05:36:50;;;;;;;17.67;9.15;;;;;;;19.84;55.99;98441.00;4444428;32;20105;-80
2022/05/06 05:39:17;;;;;;;16.35;9.55;;;;;;;19.86;56.68;98453.97;4444380;32;20101;-80
2022/05/06 05:41:44;;;;;;;18.27;11.05;;;;;;;20.21;55.91;98453.97;4442804;32;20141;-80
2022/05/06 05:49:43;;;;;;;17.55;9.57;;;;;;;20.70;54.58;98452.84;4445391;32;20093;-80
2022/05/06 05:52:10;;;;;;;16.90;10.05;;;;;;;20.61;55.37;98450.94;4445712;32;20049;-81
2022/05/06 05:54:38;;;;;;;16.35;10.73;;;;;;;20.09;56.99;98454.88;4442555;32;20113;-80
2022/05/06 05:57:05;;;;;;;18.87;10.57;;;;;;;19.80;58.54;98451.81;4441313;32;20113;-80
2022/05/06 05:59:33;;;;;;;16.65;10.15;;;;;;;20.00;58.52;98452.97;4441209;32;20432;-79
2022/05/06 06:02:03;;;;;;;16.40;10.30;;;;;;;20.17;57.86;98460.38;4427268;32;20187;-79
2022/05/06 06:04:30;;;;;;;20.30;11.25;;;;;;;20.55;56.14;98464.53;4441031;32;20153;-79
2022/05/06 06:06:57;;;;;;;19.23;10.95;;;;;;;20.27;58.41;98460.50;4426801;32;20169;-79
2022/05/06 06:09:24;;;;;;;20.62;11.48;;;;;;;20.16;59.40;98469.19;4440996;32;20123;-79
2022/05/06 06:11:51;;;;;;;20.52;12.65;;;;;;;18.81;63.82;98464.16;4440628;32;20157;-79
2022/05/06 06:14:18;;;;;;;20.20;11.73;;;;;;;17.93;68.19;98456.97;4441113;32;20110;-80
2022/05/06 06:16:45;;;;;;;20.33;11.98;;;;;;;18.46;65.52;98467.38;4441691;32;20148;-80
2022/05/06 06:19:12;;;;;;;20.75;11.57;;;;;;;18.85;64.96;98473.47;4443067;32;20482;-79
2022/05/06 06:21:39;;;;;;;18.85;11.88;;;;;;;18.88;63.99;98471.47;4442658;32;20483;-80
2022/05/06 06:24:07;;;;;;;19.60;11.45;;;;;;;18.89;65.12;98475.75;4441651;32;20165;-80
2022/05/06 06:26:35;;;;;;;19.08;11.52;;;;;;;18.31;66.27;98474.50;4442389;32;20173;-80
2022/05/06 06:29:03;;;;;;;18.40;10.68;;;;;;;18.12;66.53;98474.88;4443942;32;20144;-79
2022/05/06 06:31:31;;;;;;;17.37;8.40;;;;;;;17.59;68.88;98479.19;4442098;32;20169;-80
2022/05/06 06:33:59;;;;;;;20.77;12.88;;;;;;;18.51;64.81;98481.00;4424293;32;171208;-80
2022/05/06 06:36:27;;;;;;;18.67;10.55;;;;;;;18.37;64.03;98473.22;4441721;32;20078;-80
2022/05/06 06:38:54;;;;;;;19.87;11.57;;;;;;;17.90;65.91;98474.63;4441257;32;20149;-80
2022/05/06 06:41:21;;;;;;;23.80;11.25;;;;;;;18.24;65.89;98483.69;4441824;32;20107;-79
2022/05/06 06:43:48;;;;;;;17.90;10.23;;;;;;;17.92;68.33;98483.19;4427307;32;20133;-80
2022/05/06 06:46:16;;;;;;;17.90;11.07;;;;;;;19.26;63.14;98484.47;4440920;32;20457;-80
2022/05/06 06:48:44;;;;;;;17.35;10.20;;;;;;;18.43;65.21;98480.66;4444222;32;20053;-80
2022/05/06 06:51:11;;;;;;;21.27;10.82;;;;;;;17.99;66.87;98474.03;4431156;32;20129;-80
2022/05/06 06:53:37;;;;;;;20.05;10.13;;;;;;;18.46;65.21;98477.84;4442764;32;20193;-81
2022/05/06 06:56:05;;;;;;;18.40;11.00;;;;;;;17.99;66.96;98479.25;4427846;32;20164;-81
2022/05/06 06:58:32;;;;;;;19.37;10.68;;;;;;;18.45;65.66;98486.63;4442383;32;20067;-81
2022/05/06 07:00:59;;;;;;;21.25;11.20;;;;;;;17.69;67.87;98479.47;4442110;32;20164;-81
2022/05/06 07:03:26;;;;;;;19.25;10.40;;;;;;;18.59;65.57;98478.66;4428369;32;20402;-81
2022/05/06 07:14:10;;;;;;;17.75;10.63;;;;;;;18.94;63.28;98478.06;4440234;32;20169;-80
2022/05/06 07:16:39;;;;;;;19.25;10.70;;;;;;;18.90;64.22;98476.59;4440438;32;20120;-81
2022/05/06 07:19:06;;;;;;;19.37;10.30;;;;;;;19.34;63.28;98476.87;4439641;32;20141;-80
2022/05/06 07:21:33;;;;;;;17.17;9.70;;;;;;;19.84;60.39;98471.59;4441393;32;20082;-80
2022/05/06 07:24:00;;;;;;;19.35;10.35;;;;;;;19.82;61.52;98473.47;4427184;32;20483;-80
2022/05/06 07:26:27;;;;;;;18.73;10.65;;;;;;;19.10;63.36;98470.78;4440401;32;20165;-77
2022/05/06 07:28:54;;;;;;;18.90;10.60;;;;;;;18.64;64.91;98478.38;4439609;32;20085;-80
2022/05/06 07:31:21;;;;;;;18.23;10.90;;;;;;;18.85;64.60;98479.53;4440345;32;20128;-80
2022/05/06 07:33:49;;;;;;;18.42;8.77;;;;;;;19.74;62.08;98481.88;4440235;32;20093;-80
2022/05/06 07:36:16;;;;;;;18.17;10.15;;;;;;;19.99;61.82;98482.69;4439771;32;20104;-80
2022/05/06 07:38:43;;;;;;;18.10;10.20;;;;;;;19.20;64.71;98477.03;4440335;32;20132;-79
2022/05/06 07:41:10;;;;;;;17.00;9.20;;;;;;;19.57;63.45;98487.53;4426694;32;20085;-80
2022/05/06 07:43:36;;;;;;;16.70;10.15;;;;;;;19.61;61.14;98487.19;4440055;32;20785;-79
2022/05/06 07:46:09;;;;;;;15.80;9.88;;;;;;;19.22;62.87;98487.38;4439984;32;20550;-80
2022/05/06 08:11:17;;;;;;;21.30;11.70;;;;;;;18.85;67.56;98482.16;5442295;26;654288;-79
2022/05/06 08:13:44;;;;;;;18.70;11.88;;;;;;;18.95;66.36;98488.41;5466111;26;20110;-82
2022/05/06 08:16:11;;;;;;;17.70;11.90;;;;;;;18.38;67.71;98482.72;5466580;26;20077;-82
2022/05/06 08:18:38;;;;;;;18.30;11.32;;;;;;;18.51;68.45;98488.81;5467174;26;20183;-81
2022/05/06 08:21:05;;;;;;;17.98;11.40;;;;;;;18.48;67.90;98487.22;5465856;26;20093;-81
2022/05/06 08:23:32;;;;;;;17.85;11.27;;;;;;;18.34;68.85;98487.34;5466075;26;20054;-81
2022/05/06 08:26:00;;;;;;;21.60;11.45;;;;;;;18.10;69.31;98494.22;5466185;26;20102;-81
2022/05/06 08:28:28;;;;;;;21.23;9.88;;;;;;;18.90;67.09;98493.09;5466607;26;20121;-83
2022/05/06 08:30:55;;;;;;;29.27;12.52;;;;;;;19.27;66.52;98495.75;5470256;26;20105;-82
2022/05/06 08:33:25;;;;;;;17.98;11.20;;;;;;;19.53;67.16;98492.09;5468980;26;20069;-80
2022/05/06 08:35:52;;;;;;;19.40;10.85;;;;;;;19.37;65.67;98488.94;5467748;26;20129;-78
2022/05/06 08:38:19;;;;;;;18.75;11.85;;;;;;;19.09;65.91;98492.66;5468912;26;20133;-81
2022/05/06 08:40:49;;;;;;;18.85;11.80;;;;;;;19.21;66.56;98491.78;5467755;26;20407;-80
2022/05/06 08:43:16;;;;;;;18.33;11.68;;;;;;;19.82;65.99;98491.81;5445342;26;20074;-80
2022/05/06 08:51:47;;;;;;;17.67;10.55;;;;;;;19.88;64.01;98500.06;5467820;26;20078;-82
2022/05/06 08:54:15;;;;;;;19.35;10.70;;;;;;;19.78;66.43;98504.31;5467436;26;20147;-81
2022/05/06 08:56:43;;;;;;;18.08;11.57;;;;;;;20.27;62.34;98502.44;5466200;26;20105;-80
2022/05/06 08:59:10;;;;;;;19.00;10.32;;;;;;;20.27;62.83;98498.03;5445347;26;20042;-80
2022/05/06 09:01:37;;;;;;;16.62;10.38;;;;;;;20.44;61.71;98499.44;5465967;26;20331;-81
2022/05/06 09:04:05;;;;;;;16.12;9.50;;;;;;;20.06;62.39;98497.84;5465675;26;20073;-80
2022/05/06 09:06:32;;;;;;;17.30;10.52;;;;;;;20.39;61.89;98507.59;5445686;26;20074;-81
2022/05/06 09:09:00;;;;;;;15.15;9.20;;;;;;;20.68;60.67;98499.34;5465585;26;20097;-82
2022/05/06 09:16:39;;;;;;;16.92;9.45;;;;;;;21.45;55.04;98502.06;5460852;26;20065;-82
2022/05/06 09:17:21;;;;;;;18.27;10.02;;;;;;;21.36;57.82;98498.38;5460419;26;20046;-82
2022/05/06 09:19:48;;;;;;;23.20;10.77;;;;;;;21.78;57.53;98496.69;5460452;26;20437;-80
2022/05/06 09:22:16;;;;;;;17.00;8.88;;;;;;;21.20;58.77;98503.97;5460788;26;20055;-81
2022/05/06 09:24:47;;;;;;;16.65;9.77;;;;;;;21.39;55.97;98510.44;5460494;26;20085;-81
2022/05/06 09:31:04;;;;;;;16.25;7.95;;;;;;;21.37;52.64;98495.66;5460567;26;20103;-80
2022/05/06 09:33:35;;;;;;;13.40;6.95;;;;;;;21.73;52.48;98503.31;5440315;26;20130;-80
2022/05/06 09:36:23;;;;;;;17.42;8.25;;;;;;;21.45;53.58;98508.13;5460687;26;20102;-80
2022/05/06 09:39:07;;;;;;;15.50;7.97;;;;;;;21.51;53.31;98501.56;5439260;26;20066;-80
2022/05/06 09:41:37;;;;;;;18.15;9.23;;;;;;;21.45;52.15;98492.37;5460752;26;20411;-81
2022/05/06 09:44:05;;;;;;;13.57;8.23;;;;;;;21.47;54.24;98492.25;5440251;26;20134;-81
2022/05/06 09:46:32;;;;;;;13.10;7.28;;;;;;;21.81;52.96;98496.47;5439785;26;20069;-81
2022/05/06 09:49:01;;;;;;;15.63;8.32;;;;;;;21.77;50.47;98496.84;5439921;26;20051;-80
2022/05/06 09:51:48;;;;;;;12.93;7.62;;;;;;;21.98;49.98;98492.44;5460483;26;20053;-81
2022/05/06 09:54:31;;;;;;;13.13;7.25;;;;;;;21.62;52.61;98488.41;5460661;26;20055;-81
2022/05/06 09:56:58;;;;;;;11.63;7.00;;;;;;;22.25;53.13;98496.44;5460737;26;20078;-81
2022/05/06 09:59:25;;;;;;;12.82;7.45;;;;;;;22.18;51.29;98488.22;5460166;26;20058;-81
2022/05/06 10:01:52;;;;;;;16.17;9.38;;;;;;;22.48;48.55;98488.28;5440061;26;20117;-81
2022/05/06 10:04:19;;;;;;;12.90;8.00;;;;;;;22.50;50.66;98491.59;5460663;26;20107;-81
2022/05/06 10:06:46;;;;;;;11.85;6.45;;;;;;;22.68;48.16;98493.63;5460356;26;20122;-80
2022/05/06 10:09:13;;;;;;;12.23;6.68;;;;;;;22.74;51.11;98493.09;5460105;26;20109;-79
2022/05/06 10:11:40;;;;;;;12.48;6.35;;;;;;;22.33;50.05;98492.19;5421386;26;20113;-80
2022/05/06 10:14:07;;;;;;;13.35;6.50;;;;;;;21.94;50.11;98484.00;5439736;26;20150;-80
2022/05/06 10:16:35;;;;;;;12.73;6.82;;;;;;;22.20;49.20;98491.53;5440204;26;20114;-80
2022/05/06 10:19:03;;;;;;;14.95;6.75;;;;;;;22.48;47.58;98490.06;5439568;26;20074;-80
2022/05/06 10:21:47;;;;;;;15.95;7.57;;;;;;;22.41;47.45;98484.47;5460332;26;20067;-81
2022/05/06 10:24:15;;;;;;;14.13;7.18;;;;;;;22.55;51.89;98488.59;5460699;26;20085;-81
2022/05/06 10:26:47;;;;;;;14.80;6.97;;;;;;;22.77;51.87;98491.06;5460366;26;20114;-82
2022/05/06 10:32:28;;;;;;;16.37;7.43;;;;;;;22.71;46.66;98485.47;5460741;26;20086;-81
2022/05/06 10:34:58;;;;;;;15.35;7.75;;;;;;;22.79;50.38;98490.91;5460133;26;20379;-81
2022/05/06 10:37:35;;;;;;;13.62;7.62;;;;;;;22.96;47.51;98486.84;5460472;26;20059;-81
2022/05/06 10:40:52;;;;;;;13.55;7.12;;;;;;;22.66;47.82;98492.94;5460267;26;20118;-81
2022/05/06 10:43:48;;;;;;;18.05;8.05;;;;;;;22.86;48.91;98481.56;5343788;26;20044;-82
2022/05/06 10:46:32;;;;;;;13.32;7.62;;;;;;;23.02;50.30;98481.91;5342670;26;20088;-82
2022/05/06 10:49:36;;;;;;;10.70;5.53;;;;;;;23.13;50.88;98488.03;5445440;26;20106;-83
2022/05/06 10:54:49;;;;;;;12.25;7.12;;;;;;;23.20;45.24;98489.19;5460410;26;20122;-83
2022/05/06 10:57:18;;;;;;;18.65;7.60;;;;;;;23.21;49.03;98481.16;5460902;26;20082;-82
2022/05/06 10:59:51;;;;;;;13.40;7.65;;;;;;;23.20;51.63;98479.47;5460734;26;20062;-82
2022/05/06 11:02:27;;;;;;;14.02;7.22;;;;;;;23.37;49.35;98472.72;5460103;26;20110;-82
2022/05/06 11:04:59;;;;;;;14.77;6.80;;;;;;;23.31;51.02;98468.84;5440425;26;20047;-82
2022/05/06 11:07:28;;;;;;;11.55;6.87;;;;;;;22.67;47.08;98469.13;5461122;26;20073;-82
2022/05/06 11:09:56;;;;;;;13.80;6.80;;;;;;;23.07;47.31;98473.59;5436832;26;20780;-82
2022/05/06 11:12:35;;;;;;;13.93;6.18;;;;;;;22.79;49.09;98467.25;5458803;26;20392;-81
2022/05/06 11:15:04;;;;;;;13.23;6.18;;;;;;;23.31;46.63;98466.19;5460637;26;20079;-81
2022/05/06 11:17:32;;;;;;;11.73;5.80;;;;;;;23.15;46.56;98452.72;5459765;26;20076;-81
2022/05/06 11:20:01;;;;;;;14.55;6.00;;;;;;;22.48;44.47;98461.16;5460367;26;20058;-82
2022/05/06 11:22:28;;;;;;;12.82;6.15;;;;;;;23.17;43.46;98463.09;5439401;26;20404;-81
2022/05/06 11:24:56;;;;;;;11.80;5.90;;;;;;;22.98;45.47;98456.00;5460345;26;20046;-82
2022/05/06 11:27:25;;;;;;;15.75;6.12;;;;;;;23.20;45.26;98458.41;5460345;26;20071;-80
2022/05/06 11:29:57;;;;;;;12.43;5.53;;;;;;;23.34;46.77;98455.38;5459965;26;20136;-82
2022/05/06 11:32:28;;;;;;;15.93;6.50;;;;;;;23.01;45.12;98459.19;5440813;26;20460;-82
2022/05/06 11:35:02;;;;;;;13.05;5.68;;;;;;;22.96;45.65;98455.28;5462644;26;20073;-81
2022/05/06 11:37:31;;;;;;;9.57;4.90;;;;;;;23.12;43.07;98450.34;5440496;26;20452;-82
2022/05/06 11:42:44;;;;;;;12.93;6.30;;;;;;;22.63;44.67;98449.31;5460481;26;20119;-82
2022/05/06 11:48:08;;;;;;;11.63;5.55;;;;;;;23.17;46.92;98448.13;5461463;26;20067;-81
2022/05/06 11:50:37;;;;;;;10.82;5.62;;;;;;;23.83;46.99;98455.47;5439424;26;20089;-80
2022/05/06 11:53:08;;;;;;;10.98;5.10;;;;;;;23.59;43.45;98453.22;5439682;26;20118;-80
2022/05/06 11:55:36;;;;;;;8.70;4.85;;;;;;;23.75;45.20;98448.25;5440043;26;20082;-80
2022/05/06 11:58:07;;;;;;;10.13;5.05;;;;;;;23.48;43.79;98456.78;5440840;26;20130;-79
2022/05/06 12:00:34;;;;;;;9.18;5.00;;;;;;;23.32;43.65;98443.34;5460933;26;20062;-80
2022/05/06 12:03:07;;;;;;;10.18;5.00;;;;;;;23.25;45.31;98440.41;5464106;26;20057;-82
2022/05/06 12:05:34;;;;;;;10.23;4.60;;;;;;;23.11;45.47;98445.22;5463260;26;20057;-82
2022/05/06 12:08:02;;;;;;;9.63;5.25;;;;;;;23.15;47.33;98447.44;5462391;26;20073;-83
2022/05/06 12:10:31;;;;;;;9.18;4.65;;;;;;;23.20;45.23;98442.62;5441472;26;20121;-83
2022/05/06 12:13:02;;;;;;;10.35;5.45;;;;;;;23.76;42.71;98442.00;5462364;26;20047;-83
2022/05/06 12:15:37;;;;;;;11.38;5.03;;;;;;;23.91;40.95;98440.59;5461840;26;20535;-84
2022/05/06 12:18:07;;;;;;;11.75;4.97;;;;;;;23.89;43.21;98437.28;5463995;26;20336;-84
2022/05/06 12:20:38;;;;;;;11.05;5.62;;;;;;;23.94;44.43;98435.09;5461787;26;20058;-82
2022/05/06 12:23:06;;;;;;;10.82;4.85;;;;;;;23.87;43.14;98441.88;5460687;26;20047;-83
2022/05/06 12:25:39;;;;;;;11.45;5.28;;;;;;;24.32;43.54;98436.00;5460731;26;20439;-81
2022/05/06 12:28:15;;;;;;;9.45;4.57;;;;;;;24.64;40.84;98432.97;5460231;26;20059;-83
2022/05/06 12:30:46;;;;;;;10.52;5.18;;;;;;;23.81;43.30;98442.41;5460048;26;20126;-83
2022/05/06 12:33:15;;;;;;;10.90;5.05;;;;;;;23.91;42.85;98437.13;5439079;26;20121;-83
2022/05/06 12:36:01;;;;;;;10.05;5.25;;;;;;;23.81;42.06;98438.94;5460158;26;20043;-83
2022/05/06 12:38:41;;;;;;;10.10;5.40;;;;;;;23.79;42.50;98431.19;5459439;26;20102;-82
2022/05/06 12:41:21;;;;;;;10.55;4.10;;;;;;;24.39;43.70;98433.63;5459359;26;20107;-79
2022/05/06 12:43:50;;;;;;;10.57;4.15;;;;;;;23.81;42.23;98437.16;5459896;26;20050;-79
2022/05/06 12:46:31;;;;;;;8.52;4.60;;;;;;;24.08;41.30;98428.53;5460099;26;20074;-78